sensor_id;sensor_type;location;lat;lon;timestamp;temperature;humidity
47336;DHT22;33068;51.990;5.926;2023-02-15T00:01:06;3.60;99.90
47336;DHT22;33068;51.990;5.926;2023-02-15T00:03:34;3.60;99.90
47336;DHT22;33068;51.990;5.926;2023-02-15T00:06:03;3.60;99.90
47336;DHT22;33068;51.990;5.926;2023-02-15T00:08:30;3.70;99.90
47336;DHT22;33068;51.990;5.926;2023-02-15T00:11:05;3.70;99.90
47336;DHT22;33068;51.990;5.926;2023-02-15T00:13:33;3.70;99.90
47336;DHT22;33068;51.990;5.926;2023-02-15T00:16:02;3.80;99.90
47336;DHT22;33068;51.990;5.926;2023-02-15T00:18:29;3.60;99.90
47336;DHT22;33068;51.990;5.926;2023-02-15T00:20:57;3.60;99.90
47336;DHT22;33068;51.990;5.926;2023-02-15T00:23:26;3.60;99.90
47336;DHT22;33068;51.990;5.926;2023-02-15T00:26:03;3.60;99.90
47336;DHT22;33068;51.990;5.926;2023-02-15T00:28:30;3.60;99.90
47336;DHT22;33068;51.990;5.926;2023-02-15T00:31:06;3.60;99.90
47336;DHT22;33068;51.990;5.926;2023-02-15T00:33:35;3.60;99.90
47336;DHT22;33068;51.990;5.926;2023-02-15T00:36:03;3.60;99.90
47336;DHT22;33068;51.990;5.926;2023-02-15T00:38:33;3.40;99.90
47336;DHT22;33068;51.990;5.926;2023-02-15T00:41:05;3.40;99.90
47336;DHT22;33068;51.990;5.926;2023-02-15T00:43:33;3.30;99.90
47336;DHT22;33068;51.990;5.926;2023-02-15T00:46:01;3.20;99.90
47336;DHT22;33068;51.990;5.926;2023-02-15T00:48:29;3.20;99.90
47336;DHT22;33068;51.990;5.926;2023-02-15T00:50:58;3.20;99.90
47336;DHT22;33068;51.990;5.926;2023-02-15T00:53:27;3.20;99.90
47336;DHT22;33068;51.990;5.926;2023-02-15T00:55:55;3.20;99.90
47336;DHT22;33068;51.990;5.926;2023-02-15T00:58:23;3.10;99.90
47336;DHT22;33068;51.990;5.926;2023-02-15T01:00:50;3.10;99.90
47336;DHT22;33068;51.990;5.926;2023-02-15T01:03:18;3.00;99.90
47336;DHT22;33068;51.990;5.926;2023-02-15T01:05:47;3.10;99.90
47336;DHT22;33068;51.990;5.926;2023-02-15T01:08:14;3.10;99.90
47336;DHT22;33068;51.990;5.926;2023-02-15T01:10:41;3.20;99.90
47336;DHT22;33068;51.990;5.926;2023-02-15T01:13:13;3.20;99.90
47336;DHT22;33068;51.990;5.926;2023-02-15T01:15:41;3.10;99.90
47336;DHT22;33068;51.990;5.926;2023-02-15T01:18:08;3.30;99.90
47336;DHT22;33068;51.990;5.926;2023-02-15T01:20:38;3.20;99.90
47336;DHT22;33068;51.990;5.926;2023-02-15T01:23:07;3.20;99.90
47336;DHT22;33068;51.990;5.926;2023-02-15T01:25:35;3.10;99.90
47336;DHT22;33068;51.990;5.926;2023-02-15T01:28:03;3.00;99.90
47336;DHT22;33068;51.990;5.926;2023-02-15T01:30:33;3.10;99.90
47336;DHT22;33068;51.990;5.926;2023-02-15T01:33:00;3.00;99.90
47336;DHT22;33068;51.990;5.926;2023-02-15T01:35:30;3.00;99.90
47336;DHT22;33068;51.990;5.926;2023-02-15T01:37:57;2.90;99.90
47336;DHT22;33068;51.990;5.926;2023-02-15T01:40:25;2.80;99.90
47336;DHT22;33068;51.990;5.926;2023-02-15T01:42:53;3.20;99.90
47336;DHT22;33068;51.990;5.926;2023-02-15T01:45:25;2.90;99.90
47336;DHT22;33068;51.990;5.926;2023-02-15T01:47:59;2.90;99.90
47336;DHT22;33068;51.990;5.926;2023-02-15T01:50:32;2.90;99.90
47336;DHT22;33068;51.990;5.926;2023-02-15T01:53:05;3.00;99.90
47336;DHT22;33068;51.990;5.926;2023-02-15T01:55:36;3.00;99.90
47336;DHT22;33068;51.990;5.926;2023-02-15T01:58:05;2.90;99.90
47336;DHT22;33068;51.990;5.926;2023-02-15T02:00:33;2.90;99.90
47336;DHT22;33068;51.990;5.926;2023-02-15T02:03:04;3.00;99.90
47336;DHT22;33068;51.990;5.926;2023-02-15T02:05:31;3.00;99.90
47336;DHT22;33068;51.990;5.926;2023-02-15T02:08:01;2.70;99.90
47336;DHT22;33068;51.990;5.926;2023-02-15T02:10:31;2.60;99.90
47336;DHT22;33068;51.990;5.926;2023-02-15T02:12:59;2.60;99.90
47336;DHT22;33068;51.990;5.926;2023-02-15T02:15:32;2.60;99.90
47336;DHT22;33068;51.990;5.926;2023-02-15T02:18:14;2.70;99.90
47336;DHT22;33068;51.990;5.926;2023-02-15T02:24:34;2.60;99.90
47336;DHT22;33068;51.990;5.926;2023-02-15T02:27:21;2.60;99.90
47336;DHT22;33068;51.990;5.926;2023-02-15T02:30:27;2.70;99.90
47336;DHT22;33068;51.990;5.926;2023-02-15T02:33:17;2.60;99.90
47336;DHT22;33068;51.990;5.926;2023-02-15T02:35:54;2.60;99.90
47336;DHT22;33068;51.990;5.926;2023-02-15T02:38:28;2.60;99.90
47336;DHT22;33068;51.990;5.926;2023-02-15T02:41:07;2.60;99.90
47336;DHT22;33068;51.990;5.926;2023-02-15T02:43:44;2.60;99.90
47336;DHT22;33068;51.990;5.926;2023-02-15T02:46:20;2.60;99.90
47336;DHT22;33068;51.990;5.926;2023-02-15T02:48:49;2.50;99.90
47336;DHT22;33068;51.990;5.926;2023-02-15T02:51:16;2.50;99.90
47336;DHT22;33068;51.990;5.926;2023-02-15T02:53:49;2.40;99.90
47336;DHT22;33068;51.990;5.926;2023-02-15T02:56:21;2.40;99.90
47336;DHT22;33068;51.990;5.926;2023-02-15T02:58:50;2.40;99.90
47336;DHT22;33068;51.990;5.926;2023-02-15T03:01:24;2.40;99.90
47336;DHT22;33068;51.990;5.926;2023-02-15T03:03:58;2.40;99.90
47336;DHT22;33068;51.990;5.926;2023-02-15T03:06:33;2.30;99.90
47336;DHT22;33068;51.990;5.926;2023-02-15T03:09:09;2.30;99.90
47336;DHT22;33068;51.990;5.926;2023-02-15T03:11:42;2.30;99.90
47336;DHT22;33068;51.990;5.926;2023-02-15T03:14:10;2.30;99.90
47336;DHT22;33068;51.990;5.926;2023-02-15T03:16:39;2.60;99.90
47336;DHT22;33068;51.990;5.926;2023-02-15T03:19:13;2.20;99.90
47336;DHT22;33068;51.990;5.926;2023-02-15T03:21:45;2.20;99.90
47336;DHT22;33068;51.990;5.926;2023-02-15T03:24:26;2.30;99.90
47336;DHT22;33068;51.990;5.926;2023-02-15T03:26:56;2.10;99.90
47336;DHT22;33068;51.990;5.926;2023-02-15T03:29:27;2.10;99.90
47336;DHT22;33068;51.990;5.926;2023-02-15T03:31:58;2.10;99.90
47336;DHT22;33068;51.990;5.926;2023-02-15T03:34:28;2.10;99.90
47336;DHT22;33068;51.990;5.926;2023-02-15T03:36:59;2.10;99.90
47336;DHT22;33068;51.990;5.926;2023-02-15T03:39:31;2.10;99.90
47336;DHT22;33068;51.990;5.926;2023-02-15T03:42:07;2.00;99.90
47336;DHT22;33068;51.990;5.926;2023-02-15T03:44:41;2.00;99.90
47336;DHT22;33068;51.990;5.926;2023-02-15T03:47:17;1.90;99.90
47336;DHT22;33068;51.990;5.926;2023-02-15T03:49:50;1.90;99.90
47336;DHT22;33068;51.990;5.926;2023-02-15T03:52:20;1.90;99.90
47336;DHT22;33068;51.990;5.926;2023-02-15T03:54:49;1.90;99.90
47336;DHT22;33068;51.990;5.926;2023-02-15T03:57:20;1.90;99.90
47336;DHT22;33068;51.990;5.926;2023-02-15T04:00:09;1.90;99.90
47336;DHT22;33068;51.990;5.926;2023-02-15T04:03:11;1.80;99.90
47336;DHT22;33068;51.990;5.926;2023-02-15T04:05:41;1.90;99.90
47336;DHT22;33068;51.990;5.926;2023-02-15T04:08:09;1.80;99.90
47336;DHT22;33068;51.990;5.926;2023-02-15T04:10:36;1.80;99.90
47336;DHT22;33068;51.990;5.926;2023-02-15T04:13:18;1.80;99.90
47336;DHT22;33068;51.990;5.926;2023-02-15T04:15:45;1.80;99.90
47336;DHT22;33068;51.990;5.926;2023-02-15T04:18:30;1.80;99.90
47336;DHT22;33068;51.990;5.926;2023-02-15T04:21:17;1.70;99.90
47336;DHT22;33068;51.990;5.926;2023-02-15T04:24:01;1.70;99.90
47336;DHT22;33068;51.990;5.926;2023-02-15T04:26:46;1.60;99.90
47336;DHT22;33068;51.990;5.926;2023-02-15T04:29:14;1.60;99.90
47336;DHT22;33068;51.990;5.926;2023-02-15T04:31:41;1.70;99.90
47336;DHT22;33068;51.990;5.926;2023-02-15T04:34:09;1.60;99.90
47336;DHT22;33068;51.990;5.926;2023-02-15T04:36:38;1.50;99.90
47336;DHT22;33068;51.990;5.926;2023-02-15T04:39:06;1.60;99.90
47336;DHT22;33068;51.990;5.926;2023-02-15T04:41:34;1.60;99.90
47336;DHT22;33068;51.990;5.926;2023-02-15T04:44:01;1.50;99.90
47336;DHT22;33068;51.990;5.926;2023-02-15T04:46:28;1.50;99.90
47336;DHT22;33068;51.990;5.926;2023-02-15T04:48:56;1.50;99.90
47336;DHT22;33068;51.990;5.926;2023-02-15T04:51:23;1.50;99.90
47336;DHT22;33068;51.990;5.926;2023-02-15T04:53:52;1.60;99.90
47336;DHT22;33068;51.990;5.926;2023-02-15T04:56:19;1.50;99.90
47336;DHT22;33068;51.990;5.926;2023-02-15T04:58:46;1.50;99.90
47336;DHT22;33068;51.990;5.926;2023-02-15T05:01:14;1.40;99.90
47336;DHT22;33068;51.990;5.926;2023-02-15T05:03:41;1.50;99.90
47336;DHT22;33068;51.990;5.926;2023-02-15T05:06:08;1.40;99.90
47336;DHT22;33068;51.990;5.926;2023-02-15T05:08:35;1.40;99.90
47336;DHT22;33068;51.990;5.926;2023-02-15T05:11:03;1.70;99.90
47336;DHT22;33068;51.990;5.926;2023-02-15T05:13:30;1.40;99.90
47336;DHT22;33068;51.990;5.926;2023-02-15T05:15:58;1.40;99.90
47336;DHT22;33068;51.990;5.926;2023-02-15T05:18:25;1.40;99.90
47336;DHT22;33068;51.990;5.926;2023-02-15T05:20:52;1.40;99.90
47336;DHT22;33068;51.990;5.926;2023-02-15T05:23:19;1.40;99.90
47336;DHT22;33068;51.990;5.926;2023-02-15T05:25:47;1.40;99.90
47336;DHT22;33068;51.990;5.926;2023-02-15T05:28:34;1.40;99.90
47336;DHT22;33068;51.990;5.926;2023-02-15T05:31:04;1.40;99.90
47336;DHT22;33068;51.990;5.926;2023-02-15T05:33:31;1.40;99.90
47336;DHT22;33068;51.990;5.926;2023-02-15T05:35:58;1.40;99.90
47336;DHT22;33068;51.990;5.926;2023-02-15T05:38:26;1.30;99.90
47336;DHT22;33068;51.990;5.926;2023-02-15T05:40:53;1.50;99.90
47336;DHT22;33068;51.990;5.926;2023-02-15T05:43:21;1.20;99.90
47336;DHT22;33068;51.990;5.926;2023-02-15T05:45:51;1.20;99.90
47336;DHT22;33068;51.990;5.926;2023-02-15T05:48:20;1.20;99.90
47336;DHT22;33068;51.990;5.926;2023-02-15T05:50:57;1.10;99.90
47336;DHT22;33068;51.990;5.926;2023-02-15T05:53:24;1.10;99.90
47336;DHT22;33068;51.990;5.926;2023-02-15T05:55:51;1.00;99.90
47336;DHT22;33068;51.990;5.926;2023-02-15T05:58:19;1.10;99.90
47336;DHT22;33068;51.990;5.926;2023-02-15T06:00:46;1.10;99.90
47336;DHT22;33068;51.990;5.926;2023-02-15T06:03:15;1.00;99.90
47336;DHT22;33068;51.990;5.926;2023-02-15T06:05:43;1.00;99.90
47336;DHT22;33068;51.990;5.926;2023-02-15T06:08:10;1.00;99.90
47336;DHT22;33068;51.990;5.926;2023-02-15T06:10:37;1.10;99.90
47336;DHT22;33068;51.990;5.926;2023-02-15T06:13:05;1.00;99.90
47336;DHT22;33068;51.990;5.926;2023-02-15T06:15:33;0.90;99.90
47336;DHT22;33068;51.990;5.926;2023-02-15T06:18:00;1.00;99.90
47336;DHT22;33068;51.990;5.926;2023-02-15T06:20:29;0.90;99.90
47336;DHT22;33068;51.990;5.926;2023-02-15T06:22:56;1.00;99.90
47336;DHT22;33068;51.990;5.926;2023-02-15T06:25:23;0.80;99.90
47336;DHT22;33068;51.990;5.926;2023-02-15T06:27:50;0.90;99.90
47336;DHT22;33068;51.990;5.926;2023-02-15T06:30:18;0.90;99.90
47336;DHT22;33068;51.990;5.926;2023-02-15T06:32:45;0.90;99.90
47336;DHT22;33068;51.990;5.926;2023-02-15T06:35:12;0.90;99.90
47336;DHT22;33068;51.990;5.926;2023-02-15T06:37:41;0.90;99.90
47336;DHT22;33068;51.990;5.926;2023-02-15T06:40:09;0.90;99.90
47336;DHT22;33068;51.990;5.926;2023-02-15T06:42:36;0.90;99.90
47336;DHT22;33068;51.990;5.926;2023-02-15T06:45:04;0.90;99.90
47336;DHT22;33068;51.990;5.926;2023-02-15T06:47:31;0.90;99.90
47336;DHT22;33068;51.990;5.926;2023-02-15T06:49:58;0.90;99.90
47336;DHT22;33068;51.990;5.926;2023-02-15T06:52:25;0.80;99.90
47336;DHT22;33068;51.990;5.926;2023-02-15T06:54:54;0.80;99.90
47336;DHT22;33068;51.990;5.926;2023-02-15T06:57:21;0.80;99.90
47336;DHT22;33068;51.990;5.926;2023-02-15T06:59:48;0.80;99.90
47336;DHT22;33068;51.990;5.926;2023-02-15T07:02:16;0.80;99.90
47336;DHT22;33068;51.990;5.926;2023-02-15T07:04:43;0.90;99.90
47336;DHT22;33068;51.990;5.926;2023-02-15T07:07:11;0.90;99.90
47336;DHT22;33068;51.990;5.926;2023-02-15T07:09:38;0.80;99.90
47336;DHT22;33068;51.990;5.926;2023-02-15T07:12:09;0.80;99.90
47336;DHT22;33068;51.990;5.926;2023-02-15T07:14:53;0.80;99.90
47336;DHT22;33068;51.990;5.926;2023-02-15T07:17:20;0.90;99.90
47336;DHT22;33068;51.990;5.926;2023-02-15T07:19:47;0.90;99.90
47336;DHT22;33068;51.990;5.926;2023-02-15T07:22:15;0.80;99.90
47336;DHT22;33068;51.990;5.926;2023-02-15T07:24:42;1.20;99.90
47336;DHT22;33068;51.990;5.926;2023-02-15T07:27:10;0.90;99.90
47336;DHT22;33068;51.990;5.926;2023-02-15T07:29:37;0.90;99.90
47336;DHT22;33068;51.990;5.926;2023-02-15T07:32:06;0.90;99.90
47336;DHT22;33068;51.990;5.926;2023-02-15T07:34:34;1.10;99.90
47336;DHT22;33068;51.990;5.926;2023-02-15T07:37:01;0.90;99.90
47336;DHT22;33068;51.990;5.926;2023-02-15T07:39:28;1.00;99.90
47336;DHT22;33068;51.990;5.926;2023-02-15T07:41:55;1.00;99.90
47336;DHT22;33068;51.990;5.926;2023-02-15T07:44:27;1.00;99.90
47336;DHT22;33068;51.990;5.926;2023-02-15T07:46:54;1.00;99.90
47336;DHT22;33068;51.990;5.926;2023-02-15T07:49:22;1.00;99.90
47336;DHT22;33068;51.990;5.926;2023-02-15T07:51:49;1.10;99.90
47336;DHT22;33068;51.990;5.926;2023-02-15T07:54:16;1.00;99.90
47336;DHT22;33068;51.990;5.926;2023-02-15T07:56:43;1.00;99.90
47336;DHT22;33068;51.990;5.926;2023-02-15T07:59:10;1.10;99.90
47336;DHT22;33068;51.990;5.926;2023-02-15T08:01:39;1.20;99.90
47336;DHT22;33068;51.990;5.926;2023-02-15T08:04:08;1.20;99.90
47336;DHT22;33068;51.990;5.926;2023-02-15T08:06:37;1.20;99.90
47336;DHT22;33068;51.990;5.926;2023-02-15T08:09:06;1.40;99.90
47336;DHT22;33068;51.990;5.926;2023-02-15T08:11:34;1.20;99.90
47336;DHT22;33068;51.990;5.926;2023-02-15T08:14:06;1.30;99.90
47336;DHT22;33068;51.990;5.926;2023-02-15T08:16:36;1.30;99.90
47336;DHT22;33068;51.990;5.926;2023-02-15T08:19:07;1.40;99.90
47336;DHT22;33068;51.990;5.926;2023-02-15T08:21:36;1.60;99.90
47336;DHT22;33068;51.990;5.926;2023-02-15T08:24:04;1.50;99.90
47336;DHT22;33068;51.990;5.926;2023-02-15T08:26:32;1.60;99.90
47336;DHT22;33068;51.990;5.926;2023-02-15T08:29:00;1.60;99.90
47336;DHT22;33068;51.990;5.926;2023-02-15T08:31:28;2.00;99.90
47336;DHT22;33068;51.990;5.926;2023-02-15T08:33:56;1.80;99.90
47336;DHT22;33068;51.990;5.926;2023-02-15T08:36:27;1.80;99.90
47336;DHT22;33068;51.990;5.926;2023-02-15T08:38:56;1.80;99.90
47336;DHT22;33068;51.990;5.926;2023-02-15T08:41:25;1.90;99.90
47336;DHT22;33068;51.990;5.926;2023-02-15T08:43:54;1.90;99.90
47336;DHT22;33068;51.990;5.926;2023-02-15T08:46:23;1.90;99.90
47336;DHT22;33068;51.990;5.926;2023-02-15T08:48:50;2.00;99.90
47336;DHT22;33068;51.990;5.926;2023-02-15T08:51:20;2.00;99.90
47336;DHT22;33068;51.990;5.926;2023-02-15T08:53:51;2.10;99.90
47336;DHT22;33068;51.990;5.926;2023-02-15T08:56:20;2.10;99.90
47336;DHT22;33068;51.990;5.926;2023-02-15T08:58:47;2.20;99.90
47336;DHT22;33068;51.990;5.926;2023-02-15T09:01:17;2.30;99.90
47336;DHT22;33068;51.990;5.926;2023-02-15T09:03:46;2.40;99.90
47336;DHT22;33068;51.990;5.926;2023-02-15T09:06:14;2.50;99.90
47336;DHT22;33068;51.990;5.926;2023-02-15T09:08:41;2.50;99.90
47336;DHT22;33068;51.990;5.926;2023-02-15T09:11:11;2.60;99.90
47336;DHT22;33068;51.990;5.926;2023-02-15T09:13:39;2.70;99.90
47336;DHT22;33068;51.990;5.926;2023-02-15T09:16:08;2.90;99.90
47336;DHT22;33068;51.990;5.926;2023-02-15T09:18:38;3.10;99.90
47336;DHT22;33068;51.990;5.926;2023-02-15T09:21:07;3.30;99.90
47336;DHT22;33068;51.990;5.926;2023-02-15T09:23:34;3.40;99.90
47336;DHT22;33068;51.990;5.926;2023-02-15T09:26:03;3.50;99.90
47336;DHT22;33068;51.990;5.926;2023-02-15T09:28:32;3.60;99.90
47336;DHT22;33068;51.990;5.926;2023-02-15T09:31:08;3.70;99.90
47336;DHT22;33068;51.990;5.926;2023-02-15T09:33:35;3.80;99.90
47336;DHT22;33068;51.990;5.926;2023-02-15T09:36:03;3.90;99.90
47336;DHT22;33068;51.990;5.926;2023-02-15T09:38:30;4.00;99.90
47336;DHT22;33068;51.990;5.926;2023-02-15T09:41:14;4.10;99.90
47336;DHT22;33068;51.990;5.926;2023-02-15T09:43:53;4.20;99.90
47336;DHT22;33068;51.990;5.926;2023-02-15T09:46:32;4.40;99.90
47336;DHT22;33068;51.990;5.926;2023-02-15T09:49:09;4.50;99.90
47336;DHT22;33068;51.990;5.926;2023-02-15T09:51:51;4.70;99.90
47336;DHT22;33068;51.990;5.926;2023-02-15T09:54:33;4.90;99.90
47336;DHT22;33068;51.990;5.926;2023-02-15T09:57:09;5.10;99.90
47336;DHT22;33068;51.990;5.926;2023-02-15T09:59:44;5.30;99.90
47336;DHT22;33068;51.990;5.926;2023-02-15T10:02:23;5.50;99.90
47336;DHT22;33068;51.990;5.926;2023-02-15T10:05:04;5.50;99.90
47336;DHT22;33068;51.990;5.926;2023-02-15T10:07:55;5.70;99.90
47336;DHT22;33068;51.990;5.926;2023-02-15T10:10:35;5.80;99.90
47336;DHT22;33068;51.990;5.926;2023-02-15T10:13:21;5.90;99.90
47336;DHT22;33068;51.990;5.926;2023-02-15T10:16:03;6.10;99.90
47336;DHT22;33068;51.990;5.926;2023-02-15T10:18:52;6.20;99.90
47336;DHT22;33068;51.990;5.926;2023-02-15T10:21:33;6.30;99.90
47336;DHT22;33068;51.990;5.926;2023-02-15T10:24:24;6.40;99.90
47336;DHT22;33068;51.990;5.926;2023-02-15T10:26:56;6.60;99.90
47336;DHT22;33068;51.990;5.926;2023-02-15T10:29:33;6.80;99.90
47336;DHT22;33068;51.990;5.926;2023-02-15T10:32:13;6.90;99.90
47336;DHT22;33068;51.990;5.926;2023-02-15T10:34:50;7.20;99.90
47336;DHT22;33068;51.990;5.926;2023-02-15T10:37:31;7.30;99.90
47336;DHT22;33068;51.990;5.926;2023-02-15T10:40:08;7.40;99.90
47336;DHT22;33068;51.990;5.926;2023-02-15T10:42:46;7.50;99.90
47336;DHT22;33068;51.990;5.926;2023-02-15T10:45:22;7.70;99.90
47336;DHT22;33068;51.990;5.926;2023-02-15T10:48:13;7.90;99.90
47336;DHT22;33068;51.990;5.926;2023-02-15T10:50:48;7.90;99.90
47336;DHT22;33068;51.990;5.926;2023-02-15T10:56:19;8.20;99.90
47336;DHT22;33068;51.990;5.926;2023-02-15T10:58:57;8.40;99.90
47336;DHT22;33068;51.990;5.926;2023-02-15T11:01:33;8.50;99.90
47336;DHT22;33068;51.990;5.926;2023-02-15T11:06:54;8.70;99.90
47336;DHT22;33068;51.990;5.926;2023-02-15T11:09:25;9.00;99.90
47336;DHT22;33068;51.990;5.926;2023-02-15T11:11:56;9.00;99.90
47336;DHT22;33068;51.990;5.926;2023-02-15T11:14:35;9.20;99.90
47336;DHT22;33068;51.990;5.926;2023-02-15T11:17:08;9.50;99.90
47336;DHT22;33068;51.990;5.926;2023-02-15T11:19:41;9.70;99.90
47336;DHT22;33068;51.990;5.926;2023-02-15T11:22:10;9.90;99.90
47336;DHT22;33068;51.990;5.926;2023-02-15T11:24:42;10.10;99.90
47336;DHT22;33068;51.990;5.926;2023-02-15T11:27:18;10.20;99.90
47336;DHT22;33068;51.990;5.926;2023-02-15T11:29:53;10.20;99.90
47336;DHT22;33068;51.990;5.926;2023-02-15T11:32:24;10.30;99.90
47336;DHT22;33068;51.990;5.926;2023-02-15T11:34:58;10.50;99.90
47336;DHT22;33068;51.990;5.926;2023-02-15T11:37:31;10.60;99.90
47336;DHT22;33068;51.990;5.926;2023-02-15T11:40:01;10.70;99.90
47336;DHT22;33068;51.990;5.926;2023-02-15T11:42:30;10.90;99.90
47336;DHT22;33068;51.990;5.926;2023-02-15T11:45:04;11.10;99.90
47336;DHT22;33068;51.990;5.926;2023-02-15T11:47:35;11.30;99.90
47336;DHT22;33068;51.990;5.926;2023-02-15T11:50:05;11.40;99.90
47336;DHT22;33068;51.990;5.926;2023-02-15T11:52:33;11.50;99.90
47336;DHT22;33068;51.990;5.926;2023-02-15T11:55:00;11.50;99.90
47336;DHT22;33068;51.990;5.926;2023-02-15T11:57:33;11.80;99.90
47336;DHT22;33068;51.990;5.926;2023-02-15T12:00:04;12.00;99.90
47336;DHT22;33068;51.990;5.926;2023-02-15T12:02:37;12.00;99.90
47336;DHT22;33068;51.990;5.926;2023-02-15T12:05:11;12.00;99.90
47336;DHT22;33068;51.990;5.926;2023-02-15T12:07:43;12.10;99.90
47336;DHT22;33068;51.990;5.926;2023-02-15T12:10:18;12.10;99.90
47336;DHT22;33068;51.990;5.926;2023-02-15T12:12:46;12.00;99.90
47336;DHT22;33068;51.990;5.926;2023-02-15T12:15:13;12.10;99.90
47336;DHT22;33068;51.990;5.926;2023-02-15T12:17:49;12.20;99.90
47336;DHT22;33068;51.990;5.926;2023-02-15T12:20:28;11.90;99.90
47336;DHT22;33068;51.990;5.926;2023-02-15T12:23:00;11.80;99.90
47336;DHT22;33068;51.990;5.926;2023-02-15T12:25:33;11.80;99.90
47336;DHT22;33068;51.990;5.926;2023-02-15T12:28:02;12.00;99.90
47336;DHT22;33068;51.990;5.926;2023-02-15T12:30:31;12.20;99.90
47336;DHT22;33068;51.990;5.926;2023-02-15T12:33:05;12.30;99.90
47336;DHT22;33068;51.990;5.926;2023-02-15T12:35:36;12.00;99.90
47336;DHT22;33068;51.990;5.926;2023-02-15T12:38:21;12.20;99.90
47336;DHT22;33068;51.990;5.926;2023-02-15T12:40:57;12.30;99.90
47336;DHT22;33068;51.990;5.926;2023-02-15T12:43:31;12.50;99.90
47336;DHT22;33068;51.990;5.926;2023-02-15T12:46:19;12.60;99.90
47336;DHT22;33068;51.990;5.926;2023-02-15T12:49:05;12.60;99.90
47336;DHT22;33068;51.990;5.926;2023-02-15T12:51:47;12.60;99.90
47336;DHT22;33068;51.990;5.926;2023-02-15T12:54:33;12.70;99.90
47336;DHT22;33068;51.990;5.926;2023-02-15T12:57:14;12.80;99.90
47336;DHT22;33068;51.990;5.926;2023-02-15T12:59:50;13.00;99.90
47336;DHT22;33068;51.990;5.926;2023-02-15T13:02:26;13.00;99.90
47336;DHT22;33068;51.990;5.926;2023-02-15T13:04:56;13.00;99.90
47336;DHT22;33068;51.990;5.926;2023-02-15T13:07:30;13.00;99.90
47336;DHT22;33068;51.990;5.926;2023-02-15T13:09:58;13.00;99.90
47336;DHT22;33068;51.990;5.926;2023-02-15T13:12:27;13.00;99.90
47336;DHT22;33068;51.990;5.926;2023-02-15T13:14:57;13.10;99.90
47336;DHT22;33068;51.990;5.926;2023-02-15T13:17:26;13.20;99.90
47336;DHT22;33068;51.990;5.926;2023-02-15T13:19:57;13.30;99.70
47336;DHT22;33068;51.990;5.926;2023-02-15T13:22:31;13.20;99.60
47336;DHT22;33068;51.990;5.926;2023-02-15T13:25:03;13.00;99.90
47336;DHT22;33068;51.990;5.926;2023-02-15T13:27:36;12.90;99.90
47336;DHT22;33068;51.990;5.926;2023-02-15T13:30:15;12.80;99.90
47336;DHT22;33068;51.990;5.926;2023-02-15T13:32:45;12.80;99.90
47336;DHT22;33068;51.990;5.926;2023-02-15T13:35:16;12.70;99.90
47336;DHT22;33068;51.990;5.926;2023-02-15T13:38:09;12.80;99.90
47336;DHT22;33068;51.990;5.926;2023-02-15T13:40:44;12.70;99.90
47336;DHT22;33068;51.990;5.926;2023-02-15T13:43:27;12.70;99.90
47336;DHT22;33068;51.990;5.926;2023-02-15T13:46:10;12.60;99.90
47336;DHT22;33068;51.990;5.926;2023-02-15T13:48:46;12.60;99.90
47336;DHT22;33068;51.990;5.926;2023-02-15T13:51:17;12.70;99.90
47336;DHT22;33068;51.990;5.926;2023-02-15T13:54:28;12.70;99.90
47336;DHT22;33068;51.990;5.926;2023-02-15T13:57:14;12.70;99.90
47336;DHT22;33068;51.990;5.926;2023-02-15T13:59:55;12.70;99.90
47336;DHT22;33068;51.990;5.926;2023-02-15T14:02:49;12.60;99.90
47336;DHT22;33068;51.990;5.926;2023-02-15T14:05:29;12.70;99.90
47336;DHT22;33068;51.990;5.926;2023-02-15T14:08:08;12.60;99.90
47336;DHT22;33068;51.990;5.926;2023-02-15T14:10:46;12.70;99.90
47336;DHT22;33068;51.990;5.926;2023-02-15T14:13:44;12.70;99.90
47336;DHT22;33068;51.990;5.926;2023-02-15T14:16:20;12.70;99.90
47336;DHT22;33068;51.990;5.926;2023-02-15T14:18:58;12.70;99.90
47336;DHT22;33068;51.990;5.926;2023-02-15T14:21:30;12.70;99.90
47336;DHT22;33068;51.990;5.926;2023-02-15T14:24:11;12.60;99.90
47336;DHT22;33068;51.990;5.926;2023-02-15T14:26:48;12.60;99.90
47336;DHT22;33068;51.990;5.926;2023-02-15T14:29:27;12.50;99.90
47336;DHT22;33068;51.990;5.926;2023-02-15T14:31:59;12.50;99.90
47336;DHT22;33068;51.990;5.926;2023-02-15T14:34:31;12.40;99.90
47336;DHT22;33068;51.990;5.926;2023-02-15T14:37:03;12.40;99.90
47336;DHT22;33068;51.990;5.926;2023-02-15T14:39:40;12.40;99.90
47336;DHT22;33068;51.990;5.926;2023-02-15T14:42:33;12.50;99.90
47336;DHT22;33068;51.990;5.926;2023-02-15T14:45:06;12.50;99.90
47336;DHT22;33068;51.990;5.926;2023-02-15T14:47:44;12.60;99.90
47336;DHT22;33068;51.990;5.926;2023-02-15T14:50:37;12.70;99.90
47336;DHT22;33068;51.990;5.926;2023-02-15T14:53:38;12.70;99.90
47336;DHT22;33068;51.990;5.926;2023-02-15T14:56:17;12.60;99.90
47336;DHT22;33068;51.990;5.926;2023-02-15T14:59:17;12.60;99.90
47336;DHT22;33068;51.990;5.926;2023-02-15T15:01:55;12.60;99.90
47336;DHT22;33068;51.990;5.926;2023-02-15T15:04:27;12.60;99.90
47336;DHT22;33068;51.990;5.926;2023-02-15T15:07:12;12.50;99.90
47336;DHT22;33068;51.990;5.926;2023-02-15T15:09:43;12.50;99.90
47336;DHT22;33068;51.990;5.926;2023-02-15T15:12:37;12.40;99.90
47336;DHT22;33068;51.990;5.926;2023-02-15T15:15:09;12.40;99.90
47336;DHT22;33068;51.990;5.926;2023-02-15T15:17:56;12.30;99.90
47336;DHT22;33068;51.990;5.926;2023-02-15T15:20:44;12.30;99.90
47336;DHT22;33068;51.990;5.926;2023-02-15T15:23:41;12.20;99.90
47336;DHT22;33068;51.990;5.926;2023-02-15T15:26:24;12.10;99.90
47336;DHT22;33068;51.990;5.926;2023-02-15T15:28:57;12.10;99.90
47336;DHT22;33068;51.990;5.926;2023-02-15T15:31:38;12.10;99.90
47336;DHT22;33068;51.990;5.926;2023-02-15T15:37:49;12.00;99.90
47336;DHT22;33068;51.990;5.926;2023-02-15T15:40:41;11.80;99.90
47336;DHT22;33068;51.990;5.926;2023-02-15T15:43:40;11.80;99.90
47336;DHT22;33068;51.990;5.926;2023-02-15T15:49:20;11.70;99.90
47336;DHT22;33068;51.990;5.926;2023-02-15T15:51:48;11.60;99.90
47336;DHT22;33068;51.990;5.926;2023-02-15T15:54:18;11.60;99.90
47336;DHT22;33068;51.990;5.926;2023-02-15T15:56:49;11.60;99.90
47336;DHT22;33068;51.990;5.926;2023-02-15T15:59:21;11.50;99.90
47336;DHT22;33068;51.990;5.926;2023-02-15T16:01:50;11.50;99.90
47336;DHT22;33068;51.990;5.926;2023-02-15T16:04:25;11.50;99.90
47336;DHT22;33068;51.990;5.926;2023-02-15T16:06:53;11.50;99.90
47336;DHT22;33068;51.990;5.926;2023-02-15T16:09:22;11.40;99.90
47336;DHT22;33068;51.990;5.926;2023-02-15T16:11:51;11.30;99.90
47336;DHT22;33068;51.990;5.926;2023-02-15T16:14:25;11.30;99.90
47336;DHT22;33068;51.990;5.926;2023-02-15T16:16:56;11.20;99.90
47336;DHT22;33068;51.990;5.926;2023-02-15T16:19:28;11.10;99.90
47336;DHT22;33068;51.990;5.926;2023-02-15T16:21:59;11.00;99.90
47336;DHT22;33068;51.990;5.926;2023-02-15T16:24:42;10.90;99.90
47336;DHT22;33068;51.990;5.926;2023-02-15T16:27:18;10.80;99.90
47336;DHT22;33068;51.990;5.926;2023-02-15T16:29:49;10.80;99.90
47336;DHT22;33068;51.990;5.926;2023-02-15T16:32:18;10.70;99.90
47336;DHT22;33068;51.990;5.926;2023-02-15T16:34:55;10.60;99.90